createdAt,value
2019-05-18T13:50:18.310Z,41.77
2019-05-18T13:55:27.423Z,41.33
2019-05-18T14:00:36.611Z,42.63
2019-05-18T14:05:45.702Z,46.24
2019-05-18T14:10:54.949Z,49.80
2019-05-18T14:16:04.070Z,46.44
2019-05-18T14:21:13.203Z,42.19
2019-05-18T14:26:22.326Z,44.13
2019-05-18T14:31:31.503Z,44.29
2019-05-18T14:36:40.745Z,38.82
2019-05-18T14:41:49.898Z,41.37
2019-05-18T14:46:58.995Z,41.64
2019-05-18T14:52:11.812Z,43.90
2019-05-18T14:58:44.174Z,42.49
2019-05-18T15:03:53.641Z,39.14
2019-05-18T15:09:02.860Z,37.61
2019-05-18T15:14:12.016Z,42.91
2019-05-18T15:19:21.108Z,45.59
2019-05-18T15:24:30.344Z,40.51
2019-05-18T15:29:39.500Z,47.79
2019-05-18T15:34:48.663Z,48.67
2019-05-18T15:39:57.805Z,43.80
2019-05-18T15:45:07.103Z,46.95
2019-05-18T15:50:16.210Z,48.04
2019-05-18T15:55:25.345Z,45.08
2019-05-18T16:00:34.471Z,49.25
2019-05-18T16:05:43.712Z,48.40
2019-05-18T16:10:52.877Z,50.24
2019-05-18T16:16:02.051Z,48.43
2019-05-18T16:21:11.159Z,45.39
2019-05-18T16:26:21.891Z,51.17
2019-05-18T16:31:29.008Z,48.50
2019-05-18T16:36:38.228Z,50.55
2019-05-18T16:41:47.420Z,49.71
2019-05-18T16:46:56.832Z,50.13
2019-05-18T16:52:07.645Z,48.55
2019-05-18T16:57:06.863Z,47.79
2019-05-18T17:02:30.716Z,53.18
2019-05-18T17:07:24.882Z,48.85
2019-05-18T17:12:34.013Z,50.81
2019-05-18T17:17:43.335Z,49.40
2019-05-18T17:22:52.441Z,51.78
2019-05-18T17:28:01.595Z,55.05
2019-05-18T17:33:10.703Z,53.47
2019-05-18T17:38:19.955Z,53.37
2019-05-18T17:43:29.120Z,50.73
2019-05-18T17:48:38.382Z,49.57
2019-05-18T17:53:47.555Z,52.14
2019-05-18T17:58:56.753Z,51.54
2019-05-18T18:04:05.843Z,47.56
2019-05-18T18:09:15.009Z,53.22
2019-05-18T18:14:24.215Z,50.58
2019-05-18T18:19:33.461Z,56.00
2019-05-18T18:24:42.772Z,52.28
2019-05-18T18:29:52.057Z,55.68
2019-05-18T18:35:01.297Z,53.54
2019-05-18T18:40:10.526Z,54.50
2019-05-18T18:45:19.665Z,59.44
2019-05-18T18:50:28.934Z,58.27
2019-05-18T18:55:38.058Z,60.68
2019-05-18T19:00:47.324Z,52.96
2019-05-18T19:05:56.434Z,61.88
2019-05-18T19:11:05.627Z,60.24
2019-05-18T19:16:14.716Z,62.76
2019-05-18T19:21:23.948Z,59.64
2019-05-18T19:26:33.079Z,55.96
2019-05-18T19:31:42.275Z,55.56
2019-05-18T19:36:51.436Z,56.99
2019-05-18T19:42:00.625Z,61.13
2019-05-18T19:47:09.709Z,62.40
2019-05-18T19:52:18.949Z,63.43
2019-05-18T19:57:28.089Z,63.35
2019-05-18T20:02:37.442Z,64.54
2019-05-18T20:07:46.516Z,64.85
2019-05-18T20:12:55.834Z,71.25
2019-05-18T20:18:05.043Z,64.79
2019-05-18T20:23:14.282Z,74.83
2019-05-18T20:28:24.168Z,72.84
2019-05-18T20:33:32.095Z,74.06
2019-05-18T20:38:41.192Z,74.67
2019-05-18T20:43:50.370Z,68.59
2019-05-18T20:48:59.443Z,79.95
2019-05-18T20:54:08.599Z,72.08
2019-05-18T20:59:17.708Z,70.82
2019-05-18T21:04:26.867Z,76.31
2019-05-18T21:09:36.064Z,75.36
2019-05-18T21:14:45.276Z,69.41
2019-05-18T21:19:54.355Z,71.69
2019-05-18T21:25:03.550Z,69.93
2019-05-18T21:30:12.665Z,77.16
2019-05-18T21:35:21.929Z,70.89
2019-05-18T21:40:31.031Z,69.44
2019-05-18T21:45:40.250Z,70.35
2019-05-18T21:50:49.313Z,75.22
2019-05-18T21:55:58.486Z,69.99
2019-05-18T22:01:07.552Z,69.56
2019-05-18T22:06:16.834Z,67.70
2019-05-18T22:11:25.882Z,73.14
2019-05-18T22:16:35.071Z,70.91
2019-05-18T22:21:44.147Z,65.05
2019-05-18T22:26:53.471Z,69.15
2019-05-18T22:32:02.605Z,74.04
2019-05-18T22:37:11.851Z,74.73
2019-05-18T22:42:20.944Z,76.11
2019-05-18T22:47:30.174Z,78.87
2019-05-18T22:52:39.300Z,80.83
2019-05-18T22:57:48.666Z,77.61
2019-05-18T23:02:57.751Z,80.88
2019-05-18T23:08:07.161Z,85.05
2019-05-18T23:13:16.270Z,76.81
2019-05-18T23:18:25.442Z,90.20
2019-05-18T23:23:34.506Z,78.13
2019-05-18T23:28:43.664Z,80.33
2019-05-18T23:33:52.778Z,86.15
2019-05-18T23:39:02.145Z,87.28
2019-05-18T23:44:11.280Z,92.83
2019-05-18T23:49:20.630Z,97.15
2019-05-18T23:54:29.695Z,97.94
2019-05-18T23:59:38.882Z,93.65
